sensor_id;sensor_type;location;lat;lon;timestamp;P1;durP1;ratioP1;P2;durP2;ratioP2
71413;SDS011;59226;53.212;5.728;2023-06-22T00:01:53;12.63;;;5.53;;
71413;SDS011;59226;53.212;5.728;2023-06-22T00:04:18;12.30;;;6.20;;
71413;SDS011;59226;53.212;5.728;2023-06-22T00:06:43;12.27;;;5.93;;
71413;SDS011;59226;53.212;5.728;2023-06-22T00:09:09;15.40;;;6.87;;
71413;SDS011;59226;53.212;5.728;2023-06-22T00:11:35;15.57;;;6.10;;
71413;SDS011;59226;53.212;5.728;2023-06-22T00:14:01;13.10;;;6.77;;
71413;SDS011;59226;53.212;5.728;2023-06-22T00:16:26;12.47;;;7.07;;
71413;SDS011;59226;53.212;5.728;2023-06-22T00:18:51;12.93;;;6.43;;
71413;SDS011;59226;53.212;5.728;2023-06-22T00:21:16;9.53;;;4.57;;
71413;SDS011;59226;53.212;5.728;2023-06-22T00:23:42;12.20;;;6.20;;
71413;SDS011;59226;53.212;5.728;2023-06-22T00:26:08;11.17;;;5.50;;
71413;SDS011;59226;53.212;5.728;2023-06-22T00:28:33;11.68;;;5.50;;
71413;SDS011;59226;53.212;5.728;2023-06-22T00:30:59;10.73;;;5.67;;
71413;SDS011;59226;53.212;5.728;2023-06-22T00:33:25;10.48;;;5.65;;
71413;SDS011;59226;53.212;5.728;2023-06-22T00:35:50;13.30;;;6.13;;
71413;SDS011;59226;53.212;5.728;2023-06-22T00:38:17;12.68;;;6.78;;
71413;SDS011;59226;53.212;5.728;2023-06-22T00:40:42;17.07;;;5.80;;
71413;SDS011;59226;53.212;5.728;2023-06-22T00:43:08;11.93;;;6.03;;
71413;SDS011;59226;53.212;5.728;2023-06-22T00:45:33;10.90;;;5.43;;
71413;SDS011;59226;53.212;5.728;2023-06-22T00:47:59;12.43;;;6.13;;
71413;SDS011;59226;53.212;5.728;2023-06-22T00:50:25;11.32;;;6.18;;
71413;SDS011;59226;53.212;5.728;2023-06-22T00:52:52;12.63;;;5.87;;
71413;SDS011;59226;53.212;5.728;2023-06-22T00:55:18;13.98;;;6.82;;
71413;SDS011;59226;53.212;5.728;2023-06-22T00:57:45;13.60;;;6.10;;
71413;SDS011;59226;53.212;5.728;2023-06-22T01:00:11;11.57;;;6.35;;
71413;SDS011;59226;53.212;5.728;2023-06-22T01:02:42;11.53;;;6.17;;
71413;SDS011;59226;53.212;5.728;2023-06-22T01:05:10;14.60;;;5.18;;
71413;SDS011;59226;53.212;5.728;2023-06-22T01:07:37;9.83;;;5.60;;
71413;SDS011;59226;53.212;5.728;2023-06-22T01:10:08;11.13;;;6.38;;
71413;SDS011;59226;53.212;5.728;2023-06-22T01:12:34;11.77;;;6.50;;
71413;SDS011;59226;53.212;5.728;2023-06-22T01:15:04;12.30;;;5.72;;
71413;SDS011;59226;53.212;5.728;2023-06-22T01:17:31;11.23;;;6.10;;
71413;SDS011;59226;53.212;5.728;2023-06-22T01:19:57;14.07;;;7.13;;
71413;SDS011;59226;53.212;5.728;2023-06-22T01:22:24;11.45;;;5.82;;
71413;SDS011;59226;53.212;5.728;2023-06-22T01:30:28;9.20;;;5.68;;
71413;SDS011;59226;53.212;5.728;2023-06-22T01:32:55;10.10;;;5.85;;
71413;SDS011;59226;53.212;5.728;2023-06-22T01:35:21;9.20;;;4.97;;
71413;SDS011;59226;53.212;5.728;2023-06-22T01:37:46;8.30;;;4.70;;
71413;SDS011;59226;53.212;5.728;2023-06-22T01:40:12;8.33;;;4.73;;
71413;SDS011;59226;53.212;5.728;2023-06-22T01:42:37;9.18;;;4.90;;
71413;SDS011;59226;53.212;5.728;2023-06-22T01:45:03;10.73;;;5.13;;
71413;SDS011;59226;53.212;5.728;2023-06-22T01:47:29;9.60;;;5.60;;
71413;SDS011;59226;53.212;5.728;2023-06-22T01:49:54;10.03;;;5.00;;
71413;SDS011;59226;53.212;5.728;2023-06-22T01:52:20;11.23;;;5.07;;
71413;SDS011;59226;53.212;5.728;2023-06-22T01:54:48;10.63;;;5.63;;
71413;SDS011;59226;53.212;5.728;2023-06-22T01:57:13;9.27;;;5.20;;
71413;SDS011;59226;53.212;5.728;2023-06-22T01:59:41;8.33;;;4.50;;
71413;SDS011;59226;53.212;5.728;2023-06-22T02:02:09;9.82;;;5.45;;
71413;SDS011;59226;53.212;5.728;2023-06-22T02:04:43;8.27;;;4.47;;
71413;SDS011;59226;53.212;5.728;2023-06-22T02:07:12;10.63;;;4.30;;
71413;SDS011;59226;53.212;5.728;2023-06-22T02:09:38;10.52;;;5.70;;
71413;SDS011;59226;53.212;5.728;2023-06-22T02:12:07;8.52;;;4.00;;
71413;SDS011;59226;53.212;5.728;2023-06-22T02:14:33;12.32;;;5.30;;
71413;SDS011;59226;53.212;5.728;2023-06-22T02:16:59;13.38;;;5.72;;
71413;SDS011;59226;53.212;5.728;2023-06-22T02:19:24;8.80;;;4.43;;
71413;SDS011;59226;53.212;5.728;2023-06-22T02:21:50;13.03;;;6.00;;
71413;SDS011;59226;53.212;5.728;2023-06-22T02:24:15;8.63;;;4.40;;
71413;SDS011;59226;53.212;5.728;2023-06-22T02:26:41;10.90;;;5.23;;
71413;SDS011;59226;53.212;5.728;2023-06-22T02:29:07;7.47;;;3.72;;
71413;SDS011;59226;53.212;5.728;2023-06-22T02:31:32;10.17;;;4.70;;
71413;SDS011;59226;53.212;5.728;2023-06-22T02:33:58;11.07;;;5.23;;
71413;SDS011;59226;53.212;5.728;2023-06-22T02:36:23;9.52;;;5.10;;
71413;SDS011;59226;53.212;5.728;2023-06-22T02:38:50;9.40;;;4.77;;
71413;SDS011;59226;53.212;5.728;2023-06-22T02:41:15;11.52;;;5.70;;
71413;SDS011;59226;53.212;5.728;2023-06-22T02:43:47;13.45;;;6.80;;
71413;SDS011;59226;53.212;5.728;2023-06-22T02:46:12;14.70;;;6.40;;
71413;SDS011;59226;53.212;5.728;2023-06-22T02:48:39;12.85;;;6.20;;
71413;SDS011;59226;53.212;5.728;2023-06-22T02:51:04;10.95;;;5.72;;
71413;SDS011;59226;53.212;5.728;2023-06-22T02:53:29;9.93;;;4.40;;
71413;SDS011;59226;53.212;5.728;2023-06-22T02:55:55;10.03;;;4.27;;
71413;SDS011;59226;53.212;5.728;2023-06-22T02:58:20;8.82;;;4.68;;
71413;SDS011;59226;53.212;5.728;2023-06-22T03:00:46;9.27;;;4.13;;
71413;SDS011;59226;53.212;5.728;2023-06-22T03:03:11;9.37;;;5.27;;
71413;SDS011;59226;53.212;5.728;2023-06-22T03:05:36;7.37;;;4.27;;
71413;SDS011;59226;53.212;5.728;2023-06-22T03:08:02;9.43;;;5.03;;
71413;SDS011;59226;53.212;5.728;2023-06-22T03:10:27;9.17;;;4.57;;
71413;SDS011;59226;53.212;5.728;2023-06-22T03:12:52;10.13;;;5.20;;
71413;SDS011;59226;53.212;5.728;2023-06-22T03:15:17;7.10;;;3.67;;
71413;SDS011;59226;53.212;5.728;2023-06-22T03:17:43;9.63;;;5.13;;
71413;SDS011;59226;53.212;5.728;2023-06-22T03:20:08;11.20;;;5.45;;
71413;SDS011;59226;53.212;5.728;2023-06-22T03:22:35;12.00;;;6.00;;
71413;SDS011;59226;53.212;5.728;2023-06-22T03:25:01;10.68;;;5.30;;
71413;SDS011;59226;53.212;5.728;2023-06-22T03:27:26;9.70;;;5.60;;
71413;SDS011;59226;53.212;5.728;2023-06-22T03:29:53;10.07;;;5.72;;
71413;SDS011;59226;53.212;5.728;2023-06-22T03:32:18;8.80;;;4.80;;
71413;SDS011;59226;53.212;5.728;2023-06-22T03:34:43;9.57;;;5.03;;
71413;SDS011;59226;53.212;5.728;2023-06-22T03:37:11;14.85;;;6.53;;
71413;SDS011;59226;53.212;5.728;2023-06-22T03:39:37;11.53;;;6.03;;
71413;SDS011;59226;53.212;5.728;2023-06-22T03:42:02;9.97;;;5.00;;
71413;SDS011;59226;53.212;5.728;2023-06-22T03:44:27;9.23;;;5.17;;
71413;SDS011;59226;53.212;5.728;2023-06-22T03:46:52;10.63;;;5.63;;
71413;SDS011;59226;53.212;5.728;2023-06-22T03:49:18;12.67;;;6.13;;
71413;SDS011;59226;53.212;5.728;2023-06-22T03:51:43;9.63;;;5.03;;
71413;SDS011;59226;53.212;5.728;2023-06-22T03:54:08;8.60;;;4.70;;
71413;SDS011;59226;53.212;5.728;2023-06-22T03:56:33;9.00;;;4.77;;
71413;SDS011;59226;53.212;5.728;2023-06-22T03:58:59;8.37;;;4.33;;
71413;SDS011;59226;53.212;5.728;2023-06-22T04:01:24;7.77;;;4.87;;
71413;SDS011;59226;53.212;5.728;2023-06-22T04:03:49;9.17;;;4.57;;
71413;SDS011;59226;53.212;5.728;2023-06-22T04:06:14;9.00;;;5.20;;
71413;SDS011;59226;53.212;5.728;2023-06-22T04:08:40;10.37;;;4.57;;
71413;SDS011;59226;53.212;5.728;2023-06-22T04:11:06;8.60;;;4.80;;
71413;SDS011;59226;53.212;5.728;2023-06-22T04:13:31;8.23;;;4.63;;
71413;SDS011;59226;53.212;5.728;2023-06-22T04:15:56;7.17;;;4.10;;
71413;SDS011;59226;53.212;5.728;2023-06-22T04:18:21;7.22;;;3.85;;
71413;SDS011;59226;53.212;5.728;2023-06-22T04:20:47;8.73;;;4.60;;
71413;SDS011;59226;53.212;5.728;2023-06-22T04:23:12;7.97;;;4.23;;
71413;SDS011;59226;53.212;5.728;2023-06-22T04:25:38;7.27;;;3.97;;
71413;SDS011;59226;53.212;5.728;2023-06-22T04:28:04;10.65;;;5.18;;
71413;SDS011;59226;53.212;5.728;2023-06-22T04:30:29;8.30;;;4.70;;
71413;SDS011;59226;53.212;5.728;2023-06-22T04:32:56;7.93;;;5.10;;
71413;SDS011;59226;53.212;5.728;2023-06-22T04:35:23;7.38;;;3.92;;
71413;SDS011;59226;53.212;5.728;2023-06-22T04:37:48;8.17;;;5.20;;
71413;SDS011;59226;53.212;5.728;2023-06-22T04:40:14;10.40;;;5.25;;
71413;SDS011;59226;53.212;5.728;2023-06-22T04:42:40;8.57;;;4.57;;
71413;SDS011;59226;53.212;5.728;2023-06-22T04:45:05;9.30;;;5.40;;
71413;SDS011;59226;53.212;5.728;2023-06-22T04:47:30;9.73;;;5.17;;
71413;SDS011;59226;53.212;5.728;2023-06-22T04:49:56;10.10;;;5.70;;
71413;SDS011;59226;53.212;5.728;2023-06-22T04:52:21;8.77;;;5.00;;
71413;SDS011;59226;53.212;5.728;2023-06-22T04:54:46;11.53;;;5.20;;
71413;SDS011;59226;53.212;5.728;2023-06-22T04:57:20;9.95;;;5.60;;
71413;SDS011;59226;53.212;5.728;2023-06-22T04:59:45;10.43;;;6.00;;
71413;SDS011;59226;53.212;5.728;2023-06-22T05:02:10;8.60;;;5.27;;
71413;SDS011;59226;53.212;5.728;2023-06-22T05:04:36;10.67;;;5.37;;
71413;SDS011;59226;53.212;5.728;2023-06-22T05:07:03;9.95;;;5.80;;
71413;SDS011;59226;53.212;5.728;2023-06-22T05:09:29;12.17;;;6.87;;
71413;SDS011;59226;53.212;5.728;2023-06-22T05:11:54;8.50;;;4.65;;
71413;SDS011;59226;53.212;5.728;2023-06-22T05:14:21;9.82;;;5.35;;
71413;SDS011;59226;53.212;5.728;2023-06-22T05:16:46;9.23;;;5.03;;
71413;SDS011;59226;53.212;5.728;2023-06-22T05:19:12;10.27;;;6.03;;
71413;SDS011;59226;53.212;5.728;2023-06-22T05:21:37;15.13;;;7.10;;
71413;SDS011;59226;53.212;5.728;2023-06-22T05:24:02;12.63;;;7.27;;
71413;SDS011;59226;53.212;5.728;2023-06-22T05:26:28;10.20;;;6.05;;
71413;SDS011;59226;53.212;5.728;2023-06-22T05:28:54;15.37;;;6.77;;
71413;SDS011;59226;53.212;5.728;2023-06-22T05:31:19;14.87;;;7.27;;
71413;SDS011;59226;53.212;5.728;2023-06-22T05:33:48;11.45;;;6.80;;
71413;SDS011;59226;53.212;5.728;2023-06-22T05:36:14;13.10;;;7.65;;
71413;SDS011;59226;53.212;5.728;2023-06-22T05:38:39;12.73;;;6.83;;
71413;SDS011;59226;53.212;5.728;2023-06-22T05:41:05;16.23;;;7.15;;
71413;SDS011;59226;53.212;5.728;2023-06-22T05:43:30;14.07;;;6.90;;
71413;SDS011;59226;53.212;5.728;2023-06-22T05:45:55;15.47;;;7.67;;
71413;SDS011;59226;53.212;5.728;2023-06-22T05:48:21;12.57;;;6.23;;
71413;SDS011;59226;53.212;5.728;2023-06-22T05:50:46;15.23;;;6.97;;
71413;SDS011;59226;53.212;5.728;2023-06-22T05:53:12;13.27;;;7.33;;
71413;SDS011;59226;53.212;5.728;2023-06-22T05:55:37;16.23;;;7.80;;
71413;SDS011;59226;53.212;5.728;2023-06-22T05:58:02;12.33;;;6.37;;
71413;SDS011;59226;53.212;5.728;2023-06-22T06:00:30;13.02;;;5.90;;
71413;SDS011;59226;53.212;5.728;2023-06-22T06:02:56;13.50;;;7.33;;
71413;SDS011;59226;53.212;5.728;2023-06-22T06:05:21;15.23;;;6.93;;
71413;SDS011;59226;53.212;5.728;2023-06-22T06:07:48;16.17;;;7.18;;
71413;SDS011;59226;53.212;5.728;2023-06-22T06:10:13;15.80;;;7.63;;
71413;SDS011;59226;53.212;5.728;2023-06-22T06:12:38;12.33;;;6.00;;
71413;SDS011;59226;53.212;5.728;2023-06-22T06:15:04;12.93;;;6.77;;
71413;SDS011;59226;53.212;5.728;2023-06-22T06:17:29;13.03;;;6.00;;
71413;SDS011;59226;53.212;5.728;2023-06-22T06:19:54;12.57;;;6.77;;
71413;SDS011;59226;53.212;5.728;2023-06-22T06:22:20;12.95;;;6.28;;
71413;SDS011;59226;53.212;5.728;2023-06-22T06:24:46;14.63;;;7.03;;
71413;SDS011;59226;53.212;5.728;2023-06-22T06:27:12;12.98;;;6.65;;
71413;SDS011;59226;53.212;5.728;2023-06-22T06:29:37;14.90;;;7.37;;
71413;SDS011;59226;53.212;5.728;2023-06-22T06:32:03;13.13;;;7.13;;
71413;SDS011;59226;53.212;5.728;2023-06-22T06:34:28;13.48;;;7.40;;
71413;SDS011;59226;53.212;5.728;2023-06-22T06:36:53;13.90;;;6.27;;
71413;SDS011;59226;53.212;5.728;2023-06-22T06:39:19;14.50;;;7.13;;
71413;SDS011;59226;53.212;5.728;2023-06-22T06:41:45;13.00;;;6.57;;
71413;SDS011;59226;53.212;5.728;2023-06-22T06:44:10;12.25;;;5.82;;
71413;SDS011;59226;53.212;5.728;2023-06-22T06:46:36;12.87;;;5.87;;
71413;SDS011;59226;53.212;5.728;2023-06-22T06:49:01;13.03;;;6.30;;
71413;SDS011;59226;53.212;5.728;2023-06-22T06:51:26;12.23;;;6.33;;
71413;SDS011;59226;53.212;5.728;2023-06-22T06:53:51;13.20;;;5.97;;
71413;SDS011;59226;53.212;5.728;2023-06-22T06:56:17;13.80;;;6.97;;
71413;SDS011;59226;53.212;5.728;2023-06-22T06:58:42;11.83;;;6.10;;
71413;SDS011;59226;53.212;5.728;2023-06-22T07:01:08;10.10;;;4.83;;
71413;SDS011;59226;53.212;5.728;2023-06-22T07:03:33;11.15;;;5.82;;
71413;SDS011;59226;53.212;5.728;2023-06-22T07:05:58;13.17;;;5.93;;
71413;SDS011;59226;53.212;5.728;2023-06-22T07:08:24;13.57;;;5.73;;
71413;SDS011;59226;53.212;5.728;2023-06-22T07:10:49;10.13;;;5.57;;
71413;SDS011;59226;53.212;5.728;2023-06-22T07:13:14;11.27;;;5.07;;
71413;SDS011;59226;53.212;5.728;2023-06-22T07:15:39;9.50;;;4.00;;
71413;SDS011;59226;53.212;5.728;2023-06-22T07:18:05;12.10;;;5.73;;
71413;SDS011;59226;53.212;5.728;2023-06-22T07:20:30;12.33;;;5.00;;
71413;SDS011;59226;53.212;5.728;2023-06-22T07:22:55;10.80;;;5.90;;
71413;SDS011;59226;53.212;5.728;2023-06-22T07:25:21;12.63;;;5.60;;
71413;SDS011;59226;53.212;5.728;2023-06-22T07:27:57;12.32;;;5.43;;
71413;SDS011;59226;53.212;5.728;2023-06-22T07:30:22;11.82;;;6.60;;
71413;SDS011;59226;53.212;5.728;2023-06-22T07:32:48;12.33;;;6.33;;
71413;SDS011;59226;53.212;5.728;2023-06-22T07:35:13;12.33;;;6.00;;
71413;SDS011;59226;53.212;5.728;2023-06-22T07:37:38;11.50;;;6.10;;
71413;SDS011;59226;53.212;5.728;2023-06-22T07:40:04;12.05;;;6.70;;
71413;SDS011;59226;53.212;5.728;2023-06-22T07:42:31;10.90;;;5.60;;
71413;SDS011;59226;53.212;5.728;2023-06-22T07:44:58;11.67;;;5.07;;
71413;SDS011;59226;53.212;5.728;2023-06-22T07:47:23;12.10;;;5.78;;
71413;SDS011;59226;53.212;5.728;2023-06-22T07:49:50;10.20;;;5.35;;
71413;SDS011;59226;53.212;5.728;2023-06-22T07:52:16;11.93;;;5.47;;
71413;SDS011;59226;53.212;5.728;2023-06-22T07:54:41;14.60;;;6.53;;
71413;SDS011;59226;53.212;5.728;2023-06-22T07:57:06;11.23;;;5.47;;
71413;SDS011;59226;53.212;5.728;2023-06-22T07:59:32;9.93;;;5.83;;
71413;SDS011;59226;53.212;5.728;2023-06-22T08:01:57;12.20;;;5.30;;
71413;SDS011;59226;53.212;5.728;2023-06-22T08:04:23;11.52;;;5.82;;
71413;SDS011;59226;53.212;5.728;2023-06-22T08:06:48;13.40;;;5.70;;
71413;SDS011;59226;53.212;5.728;2023-06-22T08:09:14;11.87;;;5.10;;
71413;SDS011;59226;53.212;5.728;2023-06-22T08:11:39;9.77;;;5.22;;
71413;SDS011;59226;53.212;5.728;2023-06-22T08:14:04;15.30;;;5.40;;
71413;SDS011;59226;53.212;5.728;2023-06-22T08:16:29;12.40;;;5.50;;
71413;SDS011;59226;53.212;5.728;2023-06-22T08:18:55;9.27;;;4.67;;
71413;SDS011;59226;53.212;5.728;2023-06-22T08:21:20;9.63;;;4.73;;
71413;SDS011;59226;53.212;5.728;2023-06-22T08:23:45;10.43;;;4.93;;
71413;SDS011;59226;53.212;5.728;2023-06-22T08:26:10;9.40;;;4.60;;
71413;SDS011;59226;53.212;5.728;2023-06-22T08:28:36;11.47;;;5.30;;
71413;SDS011;59226;53.212;5.728;2023-06-22T08:31:01;10.90;;;5.10;;
71413;SDS011;59226;53.212;5.728;2023-06-22T08:33:27;11.40;;;5.50;;
71413;SDS011;59226;53.212;5.728;2023-06-22T08:35:55;13.43;;;4.47;;
71413;SDS011;59226;53.212;5.728;2023-06-22T08:38:21;10.73;;;5.03;;
71413;SDS011;59226;53.212;5.728;2023-06-22T08:40:47;13.43;;;5.13;;
71413;SDS011;59226;53.212;5.728;2023-06-22T08:43:12;9.90;;;4.90;;
71413;SDS011;59226;53.212;5.728;2023-06-22T08:45:37;12.40;;;5.53;;
71413;SDS011;59226;53.212;5.728;2023-06-22T08:48:02;10.80;;;4.97;;
71413;SDS011;59226;53.212;5.728;2023-06-22T08:50:28;10.77;;;5.30;;
71413;SDS011;59226;53.212;5.728;2023-06-22T08:52:53;10.90;;;5.73;;
71413;SDS011;59226;53.212;5.728;2023-06-22T08:55:18;12.30;;;5.53;;
71413;SDS011;59226;53.212;5.728;2023-06-22T08:57:43;10.87;;;5.37;;
71413;SDS011;59226;53.212;5.728;2023-06-22T09:00:09;10.37;;;5.03;;
71413;SDS011;59226;53.212;5.728;2023-06-22T09:02:41;10.43;;;5.30;;
71413;SDS011;59226;53.212;5.728;2023-06-22T09:05:06;8.00;;;3.53;;
71413;SDS011;59226;53.212;5.728;2023-06-22T09:07:32;12.43;;;5.17;;
71413;SDS011;59226;53.212;5.728;2023-06-22T09:09:57;11.83;;;5.20;;
71413;SDS011;59226;53.212;5.728;2023-06-22T09:12:22;7.77;;;4.20;;
71413;SDS011;59226;53.212;5.728;2023-06-22T09:14:51;10.73;;;4.20;;
71413;SDS011;59226;53.212;5.728;2023-06-22T09:17:16;8.00;;;3.97;;
71413;SDS011;59226;53.212;5.728;2023-06-22T09:19:41;9.57;;;3.57;;
71413;SDS011;59226;53.212;5.728;2023-06-22T09:22:06;8.87;;;3.30;;
71413;SDS011;59226;53.212;5.728;2023-06-22T09:24:32;8.90;;;3.50;;
71413;SDS011;59226;53.212;5.728;2023-06-22T09:26:57;9.30;;;4.05;;
71413;SDS011;59226;53.212;5.728;2023-06-22T09:29:22;8.03;;;3.77;;
71413;SDS011;59226;53.212;5.728;2023-06-22T09:31:48;7.00;;;3.00;;
71413;SDS011;59226;53.212;5.728;2023-06-22T09:34:13;9.17;;;2.90;;
71413;SDS011;59226;53.212;5.728;2023-06-22T09:36:38;7.77;;;3.13;;
71413;SDS011;59226;53.212;5.728;2023-06-22T09:39:04;8.15;;;3.72;;
71413;SDS011;59226;53.212;5.728;2023-06-22T09:41:31;9.00;;;3.35;;
71413;SDS011;59226;53.212;5.728;2023-06-22T09:43:56;7.47;;;3.57;;
71413;SDS011;59226;53.212;5.728;2023-06-22T09:46:22;7.50;;;3.67;;
71413;SDS011;59226;53.212;5.728;2023-06-22T09:48:50;9.05;;;3.20;;
71413;SDS011;59226;53.212;5.728;2023-06-22T09:51:15;7.07;;;3.20;;
71413;SDS011;59226;53.212;5.728;2023-06-22T09:53:40;8.43;;;3.13;;
71413;SDS011;59226;53.212;5.728;2023-06-22T09:56:05;9.20;;;3.13;;
71413;SDS011;59226;53.212;5.728;2023-06-22T09:58:31;7.10;;;3.17;;
71413;SDS011;59226;53.212;5.728;2023-06-22T10:00:56;5.63;;;2.60;;
71413;SDS011;59226;53.212;5.728;2023-06-22T10:03:21;9.27;;;3.37;;
71413;SDS011;59226;53.212;5.728;2023-06-22T10:05:47;5.13;;;2.50;;
71413;SDS011;59226;53.212;5.728;2023-06-22T10:08:13;6.57;;;2.97;;
71413;SDS011;59226;53.212;5.728;2023-06-22T10:10:38;6.37;;;2.93;;
71413;SDS011;59226;53.212;5.728;2023-06-22T10:13:09;6.10;;;2.67;;
71413;SDS011;59226;53.212;5.728;2023-06-22T10:15:35;8.05;;;3.50;;
71413;SDS011;59226;53.212;5.728;2023-06-22T10:18:01;7.40;;;3.38;;
71413;SDS011;59226;53.212;5.728;2023-06-22T10:20:26;9.83;;;3.27;;
71413;SDS011;59226;53.212;5.728;2023-06-22T10:22:52;9.02;;;3.83;;
71413;SDS011;59226;53.212;5.728;2023-06-22T10:25:18;10.53;;;2.33;;
71413;SDS011;59226;53.212;5.728;2023-06-22T10:27:43;6.93;;;3.10;;
71413;SDS011;59226;53.212;5.728;2023-06-22T10:30:09;5.93;;;2.20;;
71413;SDS011;59226;53.212;5.728;2023-06-22T10:32:35;4.93;;;1.92;;
71413;SDS011;59226;53.212;5.728;2023-06-22T10:35:01;6.32;;;2.30;;
71413;SDS011;59226;53.212;5.728;2023-06-22T10:37:26;5.20;;;2.23;;
71413;SDS011;59226;53.212;5.728;2023-06-22T10:39:51;6.17;;;2.10;;
71413;SDS011;59226;53.212;5.728;2023-06-22T10:42:16;5.63;;;2.20;;
71413;SDS011;59226;53.212;5.728;2023-06-22T10:44:42;7.47;;;2.23;;
71413;SDS011;59226;53.212;5.728;2023-06-22T10:47:09;5.95;;;2.13;;
71413;SDS011;59226;53.212;5.728;2023-06-22T10:49:34;7.93;;;1.80;;
71413;SDS011;59226;53.212;5.728;2023-06-22T10:51:59;3.77;;;1.40;;
71413;SDS011;59226;53.212;5.728;2023-06-22T10:54:24;3.90;;;1.57;;
71413;SDS011;59226;53.212;5.728;2023-06-22T10:56:49;8.47;;;2.17;;
71413;SDS011;59226;53.212;5.728;2023-06-22T10:59:15;4.18;;;1.77;;
71413;SDS011;59226;53.212;5.728;2023-06-22T11:01:41;3.53;;;1.60;;
71413;SDS011;59226;53.212;5.728;2023-06-22T11:04:06;4.47;;;1.40;;
71413;SDS011;59226;53.212;5.728;2023-06-22T11:06:31;5.33;;;2.10;;
71413;SDS011;59226;53.212;5.728;2023-06-22T11:08:56;5.50;;;1.90;;
71413;SDS011;59226;53.212;5.728;2023-06-22T11:11:23;4.53;;;2.00;;
71413;SDS011;59226;53.212;5.728;2023-06-22T11:13:48;4.57;;;2.20;;
71413;SDS011;59226;53.212;5.728;2023-06-22T11:16:14;4.50;;;1.80;;
71413;SDS011;59226;53.212;5.728;2023-06-22T11:18:39;5.00;;;2.20;;
71413;SDS011;59226;53.212;5.728;2023-06-22T11:21:04;5.27;;;2.40;;
71413;SDS011;59226;53.212;5.728;2023-06-22T11:23:29;7.20;;;2.00;;
71413;SDS011;59226;53.212;5.728;2023-06-22T11:25:55;4.80;;;1.93;;
71413;SDS011;59226;53.212;5.728;2023-06-22T11:28:20;5.60;;;2.33;;
71413;SDS011;59226;53.212;5.728;2023-06-22T11:30:45;5.43;;;1.80;;
71413;SDS011;59226;53.212;5.728;2023-06-22T11:33:11;4.70;;;2.13;;
71413;SDS011;59226;53.212;5.728;2023-06-22T11:35:36;5.97;;;2.17;;
71413;SDS011;59226;53.212;5.728;2023-06-22T11:38:01;5.37;;;2.10;;
71413;SDS011;59226;53.212;5.728;2023-06-22T11:40:28;6.88;;;2.58;;
71413;SDS011;59226;53.212;5.728;2023-06-22T11:42:53;6.33;;;3.03;;
71413;SDS011;59226;53.212;5.728;2023-06-22T11:45:18;7.60;;;2.40;;
71413;SDS011;59226;53.212;5.728;2023-06-22T11:47:45;5.70;;;2.20;;
71413;SDS011;59226;53.212;5.728;2023-06-22T11:50:10;5.43;;;2.33;;
71413;SDS011;59226;53.212;5.728;2023-06-22T11:52:35;5.40;;;2.47;;
71413;SDS011;59226;53.212;5.728;2023-06-22T11:55:01;5.43;;;2.27;;
71413;SDS011;59226;53.212;5.728;2023-06-22T11:57:28;6.85;;;2.10;;
71413;SDS011;59226;53.212;5.728;2023-06-22T11:59:53;4.37;;;1.73;;
71413;SDS011;59226;53.212;5.728;2023-06-22T12:02:19;4.63;;;1.63;;
71413;SDS011;59226;53.212;5.728;2023-06-22T12:04:44;6.07;;;1.90;;
71413;SDS011;59226;53.212;5.728;2023-06-22T12:07:09;5.63;;;1.97;;
71413;SDS011;59226;53.212;5.728;2023-06-22T12:09:34;4.83;;;1.67;;
71413;SDS011;59226;53.212;5.728;2023-06-22T12:12:00;5.03;;;1.60;;
71413;SDS011;59226;53.212;5.728;2023-06-22T12:14:25;5.00;;;1.53;;
71413;SDS011;59226;53.212;5.728;2023-06-22T12:16:50;3.30;;;1.43;;
71413;SDS011;59226;53.212;5.728;2023-06-22T12:19:15;3.70;;;1.57;;
71413;SDS011;59226;53.212;5.728;2023-06-22T12:21:41;5.50;;;1.70;;
71413;SDS011;59226;53.212;5.728;2023-06-22T12:24:06;4.20;;;1.63;;
71413;SDS011;59226;53.212;5.728;2023-06-22T12:26:31;4.33;;;1.53;;
71413;SDS011;59226;53.212;5.728;2023-06-22T12:28:56;5.77;;;1.60;;
71413;SDS011;59226;53.212;5.728;2023-06-22T12:31:22;6.93;;;1.40;;
71413;SDS011;59226;53.212;5.728;2023-06-22T12:33:47;3.73;;;1.40;;
71413;SDS011;59226;53.212;5.728;2023-06-22T12:36:12;2.60;;;1.10;;
71413;SDS011;59226;53.212;5.728;2023-06-22T12:38:37;2.70;;;1.10;;
71413;SDS011;59226;53.212;5.728;2023-06-22T12:41:03;1.60;;;0.60;;
71413;SDS011;59226;53.212;5.728;2023-06-22T12:43:28;2.47;;;1.00;;
71413;SDS011;59226;53.212;5.728;2023-06-22T12:45:53;3.20;;;1.30;;
71413;SDS011;59226;53.212;5.728;2023-06-22T12:48:18;2.43;;;1.13;;
71413;SDS011;59226;53.212;5.728;2023-06-22T12:50:44;3.07;;;1.20;;
71413;SDS011;59226;53.212;5.728;2023-06-22T12:53:09;3.60;;;1.10;;
71413;SDS011;59226;53.212;5.728;2023-06-22T12:55:34;4.50;;;1.00;;
71413;SDS011;59226;53.212;5.728;2023-06-22T12:57:59;2.90;;;0.90;;
71413;SDS011;59226;53.212;5.728;2023-06-22T13:00:25;2.87;;;1.00;;
71413;SDS011;59226;53.212;5.728;2023-06-22T13:02:50;2.03;;;1.00;;
71413;SDS011;59226;53.212;5.728;2023-06-22T13:05:15;2.27;;;1.00;;
71413;SDS011;59226;53.212;5.728;2023-06-22T13:07:40;2.63;;;1.00;;
71413;SDS011;59226;53.212;5.728;2023-06-22T13:10:07;2.93;;;0.80;;
71413;SDS011;59226;53.212;5.728;2023-06-22T13:12:33;2.28;;;0.88;;
71413;SDS011;59226;53.212;5.728;2023-06-22T13:14:58;2.07;;;0.87;;
71413;SDS011;59226;53.212;5.728;2023-06-22T13:17:23;2.30;;;0.93;;
71413;SDS011;59226;53.212;5.728;2023-06-22T13:19:48;2.47;;;0.90;;
71413;SDS011;59226;53.212;5.728;2023-06-22T13:22:33;2.73;;;1.00;;
71413;SDS011;59226;53.212;5.728;2023-06-22T13:24:59;2.13;;;0.98;;
71413;SDS011;59226;53.212;5.728;2023-06-22T13:27:24;1.87;;;0.77;;
71413;SDS011;59226;53.212;5.728;2023-06-22T13:29:50;2.30;;;0.80;;
71413;SDS011;59226;53.212;5.728;2023-06-22T13:32:15;3.20;;;0.77;;
71413;SDS011;59226;53.212;5.728;2023-06-22T13:34:41;4.17;;;0.97;;
71413;SDS011;59226;53.212;5.728;2023-06-22T13:37:06;2.70;;;0.90;;
71413;SDS011;59226;53.212;5.728;2023-06-22T13:39:32;3.03;;;0.83;;
71413;SDS011;59226;53.212;5.728;2023-06-22T13:41:57;2.90;;;0.90;;
71413;SDS011;59226;53.212;5.728;2023-06-22T13:44:22;5.07;;;1.17;;
71413;SDS011;59226;53.212;5.728;2023-06-22T13:46:48;1.50;;;0.70;;
71413;SDS011;59226;53.212;5.728;2023-06-22T13:49:13;1.90;;;0.70;;
71413;SDS011;59226;53.212;5.728;2023-06-22T13:51:38;4.47;;;1.20;;
71413;SDS011;59226;53.212;5.728;2023-06-22T13:54:03;3.70;;;0.87;;
71413;SDS011;59226;53.212;5.728;2023-06-22T13:56:29;2.87;;;0.80;;
71413;SDS011;59226;53.212;5.728;2023-06-22T13:58:54;2.27;;;0.97;;
71413;SDS011;59226;53.212;5.728;2023-06-22T14:01:19;2.23;;;0.90;;
71413;SDS011;59226;53.212;5.728;2023-06-22T14:03:44;2.83;;;1.10;;
71413;SDS011;59226;53.212;5.728;2023-06-22T14:06:11;1.65;;;0.70;;
71413;SDS011;59226;53.212;5.728;2023-06-22T14:08:37;1.60;;;0.90;;
71413;SDS011;59226;53.212;5.728;2023-06-22T14:11:02;1.73;;;0.70;;
71413;SDS011;59226;53.212;5.728;2023-06-22T14:13:27;2.47;;;1.07;;
71413;SDS011;59226;53.212;5.728;2023-06-22T14:15:53;1.67;;;0.70;;
71413;SDS011;59226;53.212;5.728;2023-06-22T14:18:19;5.20;;;1.00;;
71413;SDS011;59226;53.212;5.728;2023-06-22T14:20:44;1.80;;;0.80;;
71413;SDS011;59226;53.212;5.728;2023-06-22T14:23:09;2.25;;;0.80;;
71413;SDS011;59226;53.212;5.728;2023-06-22T14:25:35;3.10;;;0.70;;
71413;SDS011;59226;53.212;5.728;2023-06-22T14:28:00;3.00;;;0.90;;
71413;SDS011;59226;53.212;5.728;2023-06-22T14:30:25;1.57;;;0.90;;
71413;SDS011;59226;53.212;5.728;2023-06-22T14:32:50;2.83;;;1.00;;
71413;SDS011;59226;53.212;5.728;2023-06-22T14:35:16;2.40;;;0.80;;
71413;SDS011;59226;53.212;5.728;2023-06-22T14:37:41;4.40;;;1.00;;